Time;durP1;ratioP1;P1;durP2;ratioP2;P2;SDS_P1;SDS_P2;PMS_P1;PMS_P2;Temp;Humidity;BMP_temperature;BMP_pressure;BME280_temperature;BME280_humidity;BME280_pressure;Samples;Min_cycle;Max_cycle;Signal;HPM_P1;HPM_P2
2022/12/13 05:09:09;;;;;;;3.88;2.95;;;;;;;14.49;55.60;101244.72;6236251;22;20028;-80
2022/12/13 05:11:35;;;;;;;2.92;2.60;;;;;;;14.49;55.69;101246.47;6250790;22;20022;-82
2022/12/13 05:14:26;;;;;;;3.80;3.10;;;;;;;14.51;55.71;101252.53;6254537;22;20024;-82
2022/12/13 05:25:06;;;;;;;4.30;2.90;;;;;;;14.49;55.83;101238.69;6277952;22;20007;-83
2022/12/13 06:26:14;;;;;;;3.88;2.85;;;;;;;14.47;55.62;101235.22;6335183;22;20053;-83
2022/12/13 06:42:12;;;;;;;6.28;3.50;;;;;;;14.59;55.29;101235.38;6240017;22;20028;31
2022/12/13 11:47:44;;;;;;;5.47;4.13;;;;;;;15.32;53.52;101180.59;6257066;22;20004;-83
2022/12/13 12:17:19;;;;;;;5.10;3.90;;;;;;;15.49;53.46;101166.88;6273182;22;20027;-84
2022/12/13 12:38:31;;;;;;;4.25;3.33;;;;;;;15.55;53.59;101182.47;6265203;22;20004;-82
2022/12/13 12:47:32;;;;;;;5.63;4.03;;;;;;;15.55;53.56;101156.53;6265198;22;20029;-83
2022/12/13 12:50:02;;;;;;;5.28;4.10;;;;;;;15.55;53.81;101151.34;6306689;22;20015;-82
2022/12/13 13:10:36;;;;;;;5.85;4.18;;;;;;;15.54;53.64;101121.91;6286447;22;20015;-83
2022/12/13 13:13:12;;;;;;;8.07;3.97;;;;;;;15.54;53.63;101114.13;6273916;22;20004;-83
2022/12/13 13:24:30;;;;;;;4.25;3.63;;;;;;;15.57;53.49;101115.88;6287508;22;20033;-83
2022/12/13 13:31:01;;;;;;;4.03;3.60;;;;;;;15.55;53.81;101107.25;6337511;22;20025;-84
2022/12/13 13:33:55;;;;;;;4.97;3.55;;;;;;;15.54;53.79;101103.75;6271116;22;20075;-84
2022/12/13 13:37:00;;;;;;;4.53;3.63;;;;;;;15.55;53.61;101107.25;6294708;22;20007;-84
2022/12/13 13:53:06;;;;;;;4.32;3.38;;;;;;;15.52;53.59;101091.66;6285039;22;20010;-83
2022/12/13 14:07:34;;;;;;;4.43;3.72;;;;;;;15.53;53.48;101081.28;6305734;22;20030;-83
2022/12/13 14:10:39;;;;;;;5.45;3.88;;;;;;;15.51;53.50;101075.22;6279222;22;20034;-85
2022/12/13 14:46:00;;;;;;;4.93;4.03;;;;;;;15.50;53.27;101047.56;6265890;22;20015;-84
2022/12/13 14:52:00;;;;;;;4.35;3.75;;;;;;;15.51;53.26;101038.91;6266720;22;20038;-84
2022/12/13 16:04:58;;;;;;;3.95;3.30;;;;;;;15.53;53.00;101016.44;6286509;22;20026;-82
2022/12/13 16:15:03;;;;;;;4.32;3.50;;;;;;;15.54;53.04;101007.78;6304672;22;20068;-85
2022/12/13 16:18:06;;;;;;;4.78;3.65;;;;;;;15.54;53.10;101004.34;6301938;22;19995;-85
2022/12/13 16:20:39;;;;;;;5.07;3.67;;;;;;;15.53;52.87;101005.22;6304906;22;19992;-83
2022/12/13 16:23:13;;;;;;;4.32;3.40;;;;;;;15.53;53.06;100987.06;6280698;22;19988;-84
2022/12/13 16:29:13;;;;;;;4.45;3.55;;;;;;;15.54;52.92;100991.38;6259108;22;20066;-82
2022/12/13 16:51:04;;;;;;;4.57;3.50;;;;;;;15.25;53.06;100984.41;6336992;22;20025;-83
2022/12/13 17:26:05;;;;;;;5.97;4.35;;;;;;;15.58;55.08;100973.22;6321697;22;20051;-83
2022/12/13 17:28:31;;;;;;;6.68;4.53;;;;;;;15.62;55.01;100967.16;6304124;22;20020;-82
2022/12/13 17:31:06;;;;;;;8.30;4.50;;;;;;;15.67;55.06;100972.34;6310967;22;20430;-80
2022/12/13 17:33:32;;;;;;;9.88;4.40;;;;;;;15.69;54.76;100973.22;6311431;22;20000;-81
2022/12/13 17:36:01;;;;;;;7.53;4.80;;;;;;;15.65;54.66;100974.09;6258354;22;20033;-80
2022/12/13 17:38:26;;;;;;;8.68;4.97;;;;;;;15.67;54.51;100980.13;6284066;22;20007;-81
2022/12/13 17:40:52;;;;;;;6.95;5.10;;;;;;;15.68;54.49;100973.22;6231832;22;20010;-80
2022/12/13 17:43:18;;;;;;;10.40;5.00;;;;;;;15.69;54.42;100974.97;6282823;22;20056;-81
2022/12/13 17:45:43;;;;;;;8.02;5.20;;;;;;;15.70;54.26;100972.38;6258221;22;20014;-81
2022/12/13 17:48:09;;;;;;;8.35;4.97;;;;;;;15.73;54.40;100975.00;6285413;22;20011;-80
2022/12/13 17:50:36;;;;;;;6.28;4.65;;;;;;;15.74;54.85;100971.56;6231819;22;20014;-80
2022/12/13 17:53:02;;;;;;;7.07;4.50;;;;;;;15.76;54.82;100964.59;6311358;22;19999;-81
2022/12/13 17:55:30;;;;;;;9.65;4.68;;;;;;;15.77;54.67;100963.75;6258587;22;20015;-80
2022/12/13 17:57:55;;;;;;;5.63;4.25;;;;;;;15.78;55.09;100962.00;6258537;22;20015;-80
2022/12/13 18:00:21;;;;;;;7.05;4.40;;;;;;;15.81;55.23;100962.03;6282521;22;20030;-80
2022/12/13 18:02:47;;;;;;;6.38;4.22;;;;;;;15.80;55.15;100955.94;6257216;22;20015;-80
2022/12/13 18:05:13;;;;;;;7.43;4.53;;;;;;;15.81;55.26;100946.47;6256981;22;20011;-80
2022/12/13 18:07:38;;;;;;;7.18;4.63;;;;;;;15.81;55.17;100956.84;6256958;22;20416;-80
2022/12/13 18:10:04;;;;;;;6.28;4.68;;;;;;;15.82;55.03;100954.22;6261492;22;20432;-80
2022/12/13 18:12:31;;;;;;;5.72;4.35;;;;;;;15.84;55.18;100944.72;6291063;22;20017;-80
2022/12/13 18:14:57;;;;;;;8.05;4.47;;;;;;;15.86;54.94;100949.06;6237587;22;20007;-80
2022/12/13 18:17:24;;;;;;;6.20;4.50;;;;;;;15.86;55.02;100938.69;6285414;22;20068;-80
2022/12/13 18:19:49;;;;;;;6.43;4.25;;;;;;;15.87;54.92;100942.97;6284280;22;20007;-81
2022/12/13 18:22:14;;;;;;;6.60;4.18;;;;;;;15.86;55.02;100936.06;6261240;22;20381;-80
2022/12/13 18:24:40;;;;;;;5.63;4.20;;;;;;;15.86;54.96;100938.69;6265097;22;20000;-81
2022/12/13 18:27:05;;;;;;;5.25;4.50;;;;;;;15.83;55.01;100943.00;6316086;22;20449;-80
2022/12/13 18:29:31;;;;;;;5.63;4.30;;;;;;;15.84;54.82;100946.44;6260466;22;20387;-81
2022/12/13 18:31:56;;;;;;;5.55;4.43;;;;;;;15.82;55.01;100936.06;6290656;22;20053;-80
2022/12/13 18:34:21;;;;;;;8.00;4.38;;;;;;;15.82;54.77;100941.25;6286831;22;20010;-79
2022/12/13 18:36:47;;;;;;;5.18;3.90;;;;;;;15.82;54.93;100932.59;6258052;22;20010;-79
2022/12/13 18:39:12;;;;;;;5.65;4.07;;;;;;;15.81;54.76;100931.75;6257080;22;20007;-80
2022/12/13 18:41:39;;;;;;;7.88;4.10;;;;;;;15.83;54.69;100926.56;6283443;22;20003;-79
2022/12/13 18:44:06;;;;;;;5.38;4.00;;;;;;;15.82;54.72;100920.50;6257041;22;20004;-79
2022/12/13 18:46:36;;;;;;;5.47;4.10;;;;;;;15.81;54.62;100926.56;6282486;22;20014;-79
2022/12/13 18:49:03;;;;;;;4.75;3.92;;;;;;;15.81;54.58;100918.78;6309679;22;20026;-79
2022/12/13 18:51:28;;;;;;;5.72;4.13;;;;;;;15.81;54.54;100923.97;6256814;22;20011;-79
2022/12/13 18:53:55;;;;;;;4.93;4.18;;;;;;;15.83;54.46;100921.38;6256272;22;20068;-79
2022/12/13 18:56:21;;;;;;;4.72;3.85;;;;;;;15.82;54.72;100911.84;6281818;22;20089;-79
2022/12/13 18:58:47;;;;;;;7.35;4.35;;;;;;;15.81;54.36;100916.19;6281465;22;20010;-79
2022/12/13 19:01:14;;;;;;;7.35;4.30;;;;;;;15.82;54.48;100917.03;6281451;22;20003;-79
2022/12/13 19:03:42;;;;;;;5.40;3.90;;;;;;;15.82;54.28;100910.13;6256772;22;20007;-79
2022/12/13 19:06:14;;;;;;;6.78;4.13;;;;;;;15.81;54.40;100908.41;6309849;22;20029;-82
2022/12/13 19:08:40;;;;;;;4.75;3.90;;;;;;;15.81;54.55;100905.81;6281787;22;19995;-79
2022/12/13 19:11:05;;;;;;;5.25;4.18;;;;;;;15.81;54.00;100903.22;6256683;22;20056;-79
2022/12/13 19:13:31;;;;;;;4.78;4.25;;;;;;;15.81;54.08;100905.81;6282448;22;20007;-79
2022/12/13 19:16:02;;;;;;;5.03;3.90;;;;;;;15.84;54.11;100907.53;6233844;22;20003;-79
2022/12/13 19:18:27;;;;;;;6.63;4.32;;;;;;;15.86;54.15;100915.31;6318654;22;19999;-80
2022/12/13 19:20:53;;;;;;;4.70;4.13;;;;;;;15.84;54.01;100910.97;6233821;22;20010;-78
2022/12/13 19:23:19;;;;;;;6.88;3.75;;;;;;;15.82;54.02;100894.53;6256235;22;20104;-79
2022/12/13 19:25:45;;;;;;;5.68;3.90;;;;;;;15.82;53.90;100889.34;6251111;22;20341;-79
2022/12/13 19:28:11;;;;;;;6.65;3.67;;;;;;;15.83;53.94;100887.66;6277053;22;20015;-79
2022/12/13 19:30:37;;;;;;;4.78;3.75;;;;;;;15.82;53.96;100880.72;6276762;22;19996;-79
2022/12/13 19:33:05;;;;;;;5.05;3.95;;;;;;;15.82;54.15;100888.50;6276525;22;20000;-80
2022/12/13 19:35:30;;;;;;;5.90;3.80;;;;;;;15.82;53.91;100886.75;6276812;22;20078;-80
2022/12/13 19:37:56;;;;;;;5.30;4.38;;;;;;;15.83;53.85;100888.50;6250618;22;20042;-79
2022/12/13 19:40:21;;;;;;;6.75;4.10;;;;;;;15.82;53.98;100880.72;6277305;22;20007;-79
2022/12/13 19:42:46;;;;;;;4.55;3.80;;;;;;;15.82;53.98;100876.38;6251127;22;20399;-80
2022/12/13 19:45:12;;;;;;;4.45;3.70;;;;;;;15.82;53.97;100865.16;6226024;22;20031;-80
2022/12/13 19:47:37;;;;;;;5.05;4.07;;;;;;;15.82;53.81;100868.59;6276509;22;20004;-80
2022/12/13 19:50:03;;;;;;;4.60;3.58;;;;;;;15.82;53.95;100867.75;6276394;22;20086;-79
2022/12/13 19:52:29;;;;;;;4.88;3.67;;;;;;;15.83;53.78;100862.56;6250526;22;20090;-79
2022/12/13 19:54:54;;;;;;;5.38;3.70;;;;;;;15.82;53.74;100858.22;6249682;22;20120;-79
2022/12/13 19:57:20;;;;;;;4.93;3.85;;;;;;;15.82;53.94;100855.63;6250335;22;20011;-79
2022/12/13 19:59:45;;;;;;;4.57;3.75;;;;;;;15.82;53.73;100855.63;6250384;22;20424;-79
2022/12/13 20:02:13;;;;;;;4.93;3.83;;;;;;;15.83;53.75;100861.69;6250258;22;20106;-79
2022/12/13 20:04:39;;;;;;;4.35;3.70;;;;;;;15.83;53.70;100853.91;6275867;22;20336;-79
2022/12/13 20:07:05;;;;;;;4.82;3.80;;;;;;;15.83;53.69;100857.38;6275623;22;20008;-80
2022/12/13 20:09:30;;;;;;;4.80;3.92;;;;;;;15.84;53.57;100853.88;6225500;22;20015;-80
2022/12/13 20:11:56;;;;;;;5.47;3.70;;;;;;;15.84;53.48;100848.69;6250730;22;20012;-80
2022/12/13 20:14:21;;;;;;;4.05;3.65;;;;;;;15.83;53.65;100839.19;6251750;22;20078;-79
2022/12/13 20:16:47;;;;;;;4.88;3.90;;;;;;;15.84;53.50;100840.91;6253242;22;20448;-79
2022/12/13 20:19:13;;;;;;;3.72;3.35;;;;;;;15.84;53.52;100838.31;6278475;22;20429;-79
2022/12/13 20:21:39;;;;;;;5.15;3.88;;;;;;;15.85;53.70;100839.19;6252645;22;20340;-80
2022/12/13 20:24:05;;;;;;;4.10;3.45;;;;;;;15.84;53.57;100837.47;6278060;22;20007;-79
2022/12/13 20:26:32;;;;;;;3.88;3.38;;;;;;;15.84;53.55;100832.28;6252113;22;20095;-79
2022/12/13 20:28:57;;;;;;;4.75;3.60;;;;;;;15.84;53.53;100829.69;6280198;22;20000;-79
2022/12/13 20:31:28;;;;;;;4.85;3.97;;;;;;;15.86;53.47;100834.88;6278365;22;20099;-79
2022/12/13 20:33:58;;;;;;;4.18;3.50;;;;;;;15.86;53.27;100833.13;6277661;22;20031;-79
2022/12/13 20:36:26;;;;;;;4.38;3.55;;;;;;;15.86;53.46;100832.28;6285647;22;20056;-79
2022/12/13 20:38:57;;;;;;;4.38;3.55;;;;;;;15.86;53.33;100824.50;6280891;22;20371;-79
2022/12/13 20:41:24;;;;;;;4.68;3.70;;;;;;;15.87;53.22;100824.47;6278740;22;20007;-79
2022/12/13 20:43:51;;;;;;;4.82;3.75;;;;;;;15.87;52.92;100818.41;6280531;22;20007;-80
2022/12/13 20:46:17;;;;;;;4.65;3.53;;;;;;;15.87;53.29;100810.63;6288179;22;20003;-83
2022/12/13 20:48:45;;;;;;;4.15;3.50;;;;;;;15.86;53.21;100812.38;6261973;22;20064;-80
2022/12/13 20:51:13;;;;;;;4.57;3.67;;;;;;;15.87;53.29;100800.25;6278562;22;20424;-80
2022/12/13 20:53:41;;;;;;;3.92;3.33;;;;;;;15.88;53.02;100799.41;6277762;22;20000;-79
2022/12/13 20:56:12;;;;;;;3.97;3.35;;;;;;;15.87;53.31;100788.13;6278470;22;20006;-79
2022/12/13 20:58:38;;;;;;;4.47;3.50;;;;;;;15.88;53.18;100782.09;6255865;22;20027;-79
2022/12/13 21:01:04;;;;;;;6.60;3.63;;;;;;;15.89;53.11;100783.81;6278261;22;20421;-79
2022/12/13 21:03:29;;;;;;;4.13;3.60;;;;;;;15.91;53.03;100776.88;6278052;22;20082;-78
2022/12/13 21:05:55;;;;;;;7.32;3.30;;;;;;;15.95;53.00;100772.56;6252954;22;20026;-79
2022/12/13 21:11:23;;;;;;;4.28;3.50;;;;;;;15.94;52.90;100763.91;6284541;22;20014;-79
2022/12/13 21:13:51;;;;;;;5.57;3.60;;;;;;;15.93;53.05;100767.34;6260345;22;20086;-79
2022/12/13 21:16:17;;;;;;;4.53;3.40;;;;;;;15.90;53.07;100763.94;6291748;22;20006;-84
2022/12/13 21:18:42;;;;;;;6.43;3.80;;;;;;;15.89;52.91;100770.84;6276734;22;20002;-84
2022/12/13 21:21:09;;;;;;;4.10;3.65;;;;;;;15.88;53.06;100770.88;6250513;22;20003;-83
2022/12/13 21:23:37;;;;;;;4.80;3.83;;;;;;;15.86;53.13;100773.44;6274854;22;20043;-84
2022/12/13 21:26:07;;;;;;;4.80;3.72;;;;;;;15.86;53.27;100775.19;6299725;22;20003;-83
2022/12/13 21:28:32;;;;;;;4.13;3.55;;;;;;;15.85;53.39;100774.31;6302295;22;20004;-82
2022/12/13 21:30:58;;;;;;;5.47;3.83;;;;;;;15.86;53.08;100777.78;6278011;22;20014;-84
2022/12/13 21:33:23;;;;;;;4.78;3.97;;;;;;;15.83;53.22;100770.88;6304235;22;20030;-84
2022/12/13 21:35:49;;;;;;;3.72;3.22;;;;;;;15.82;53.19;100770.00;6277825;22;20012;-84
2022/12/13 21:38:14;;;;;;;4.78;3.58;;;;;;;15.81;53.18;100770.88;6305024;22;20003;-85
2022/12/13 21:40:44;;;;;;;4.35;3.30;;;;;;;15.81;53.14;100768.28;6305600;22;19992;-84
2022/12/13 21:43:09;;;;;;;7.15;3.60;;;;;;;15.81;53.07;100764.84;6319341;22;20063;-85
2022/12/13 21:45:35;;;;;;;5.45;3.70;;;;;;;15.79;53.27;100761.38;6283725;22;20045;-83
2022/12/13 21:48:00;;;;;;;4.78;3.72;;;;;;;15.80;52.95;100763.94;6297245;22;19995;-84
2022/12/13 21:50:31;;;;;;;5.13;3.70;;;;;;;15.76;53.28;100759.63;6283503;22;20014;-84
2022/12/13 21:52:58;;;;;;;5.45;3.70;;;;;;;15.76;53.15;100764.81;6270401;22;20003;-83
2022/12/13 21:55:24;;;;;;;4.55;3.90;;;;;;;15.70;53.16;100757.03;6259646;22;20007;-83
2022/12/13 22:00:34;;;;;;;5.60;4.40;;;;;;;15.55;53.51;100739.78;6313527;22;20081;-83
2022/12/13 22:03:00;;;;;;;5.63;4.47;;;;;;;15.54;53.15;100732.00;6290558;22;19983;-84
2022/12/13 22:05:25;;;;;;;7.93;4.90;;;;;;;15.49;53.30;100736.34;6302154;22;20003;-85
2022/12/13 22:07:52;;;;;;;7.53;4.40;;;;;;;15.49;53.29;100742.38;6298296;22;20010;-83
2022/12/13 22:10:18;;;;;;;7.30;4.78;;;;;;;15.46;53.27;100746.72;6327935;22;19999;-83
2022/12/13 22:12:44;;;;;;;6.43;4.93;;;;;;;15.42;53.24;100741.53;6276170;22;20015;-82
2022/12/13 22:15:13;;;;;;;9.55;5.18;;;;;;;15.39;53.19;100725.13;6274295;22;20004;-81
2022/12/13 22:17:43;;;;;;;8.25;4.78;;;;;;;15.39;53.20;100730.31;6304283;22;20035;-81
2022/12/13 22:20:34;;;;;;;8.38;5.10;;;;;;;15.38;53.06;100720.81;6303293;22;19999;-81
2022/12/13 22:26:26;;;;;;;7.70;4.90;;;;;;;15.36;52.85;100722.53;6289039;22;20027;-85
2022/12/13 22:37:34;;;;;;;8.23;4.95;;;;;;;15.30;52.97;100715.63;6300215;22;20020;-83
2022/12/13 22:40:13;;;;;;;6.72;5.13;;;;;;;15.27;52.77;100707.88;6257033;22;20030;-82
2022/12/13 22:42:48;;;;;;;7.28;5.03;;;;;;;15.29;52.81;100707.88;6301210;22;20000;-82
2022/12/13 22:45:25;;;;;;;7.78;4.93;;;;;;;15.27;52.81;100702.69;6276914;22;20034;-83
2022/12/13 22:48:12;;;;;;;8.02;5.43;;;;;;;15.28;52.89;100700.94;6249462;22;20022;-84
2022/12/13 22:50:47;;;;;;;6.85;5.05;;;;;;;15.23;52.72;100699.22;6250280;22;20067;-84
2022/12/13 22:53:14;;;;;;;6.88;4.97;;;;;;;15.25;52.75;100699.22;6209235;23;20004;-82
2022/12/13 22:55:40;;;;;;;8.75;5.03;;;;;;;15.23;52.66;100693.19;6158486;23;20040;-82
2022/12/13 22:58:08;;;;;;;5.93;4.55;;;;;;;15.23;52.72;100688.84;6146120;23;20005;-82
2022/12/13 23:00:35;;;;;;;6.43;5.00;;;;;;;15.23;52.55;100688.84;6141052;23;20145;-81
2022/12/13 23:03:23;;;;;;;8.80;4.80;;;;;;;15.23;52.51;100681.06;6109476;23;20014;-82
2022/12/13 23:05:56;;;;;;;7.47;4.75;;;;;;;15.20;52.61;100685.44;6118001;23;20003;-81
2022/12/13 23:08:22;;;;;;;8.00;4.68;;;;;;;15.23;52.53;100673.31;6120606;23;20022;-83
2022/12/13 23:13:36;;;;;;;6.40;4.32;;;;;;;15.20;52.24;100675.06;6089165;23;20016;-82
2022/12/13 23:16:08;;;;;;;6.15;4.55;;;;;;;15.18;52.35;100672.47;6118765;23;20046;-83
2022/12/13 23:18:34;;;;;;;6.35;4.93;;;;;;;15.18;52.34;100676.78;6119991;23;20058;-83
2022/12/13 23:21:02;;;;;;;7.55;4.68;;;;;;;15.19;52.31;100673.31;6120144;23;20002;-81
2022/12/13 23:23:35;;;;;;;8.95;5.00;;;;;;;15.17;52.53;100678.50;6096439;23;20010;-82
2022/12/13 23:26:11;;;;;;;;;;;;;;;15.19;52.59;100679.34;6097359;23;20002;-81
2022/12/13 23:28:39;;;;;;;6.47;4.25;;;;;;;15.17;52.40;100672.44;6096564;23;19912;-82
2022/12/13 23:31:07;;;;;;;8.35;4.55;;;;;;;15.18;52.38;100669.00;6163438;23;20012;-83
2022/12/13 23:33:44;;;;;;;6.85;4.72;;;;;;;15.17;52.33;100667.28;6153312;23;20016;-83
2022/12/13 23:36:17;;;;;;;6.15;4.43;;;;;;;15.17;52.27;100664.69;6068281;23;20022;-82
2022/12/13 23:38:45;;;;;;;7.53;4.30;;;;;;;15.16;52.07;100660.38;6066517;23;20026;-82
2022/12/13 23:41:15;;;;;;;6.30;4.55;;;;;;;15.17;52.27;100667.28;6090515;23;20062;-83
2022/12/13 23:43:49;;;;;;;7.10;4.53;;;;;;;15.16;52.17;100658.63;6090186;23;20007;-83
2022/12/13 23:46:22;;;;;;;6.00;4.40;;;;;;;15.14;52.22;100654.34;6065540;23;20013;-83
2022/12/13 23:49:11;;;;;;;6.40;4.20;;;;;;;15.13;52.23;100658.63;6092314;23;19997;-82
2022/12/13 23:51:38;;;;;;;7.82;4.80;;;;;;;15.14;52.19;100660.38;6062843;23;20019;-81
2022/12/13 23:54:13;;;;;;;7.07;4.38;;;;;;;15.13;52.03;100660.38;6062470;23;20021;-84
2022/12/13 23:56:40;;;;;;;5.95;4.63;;;;;;;15.12;52.13;100649.13;6054775;23;20070;-82
2022/12/13 23:59:07;;;;;;;6.53;4.30;;;;;;;15.10;52.13;100650.88;6062924;23;20015;-82
